sensor_id;sensor_type;location;lat;lon;timestamp;pressure;altitude;pressure_sealevel;temperature;humidity
19208;BME280;9737;59.466;18.036;2023-02-28T00:01:11;96029.50;;;-1.10;65.21
19208;BME280;9737;59.466;18.036;2023-02-28T00:03:39;95976.91;;;-1.23;65.27
19208;BME280;9737;59.466;18.036;2023-02-28T00:06:08;95926.28;;;-1.38;64.99
19208;BME280;9737;59.466;18.036;2023-02-28T00:08:36;95899.16;;;-1.45;64.80
19208;BME280;9737;59.466;18.036;2023-02-28T00:11:09;95893.94;;;-1.45;65.07
19208;BME280;9737;59.466;18.036;2023-02-28T00:13:38;95936.41;;;-1.35;65.27
19208;BME280;9737;59.466;18.036;2023-02-28T00:16:08;95954.88;;;-1.29;64.97
19208;BME280;9737;59.466;18.036;2023-02-28T00:18:37;95983.75;;;-1.22;65.40
19208;BME280;9737;59.466;18.036;2023-02-28T00:21:05;95969.69;;;-1.29;65.21
19208;BME280;9737;59.466;18.036;2023-02-28T00:23:34;95938.03;;;-1.34;65.02
19208;BME280;9737;59.466;18.036;2023-02-28T00:26:02;95883.81;;;-1.48;65.34
19208;BME280;9737;59.466;18.036;2023-02-28T00:28:32;95861.63;;;-1.52;65.12
19208;BME280;9737;59.466;18.036;2023-02-28T00:31:00;95890.66;;;-1.47;65.54
19208;BME280;9737;59.466;18.036;2023-02-28T00:33:28;95898.34;;;-1.46;65.08
19208;BME280;9737;59.466;18.036;2023-02-28T00:36:07;95854.28;;;-1.57;65.23
19208;BME280;9737;59.466;18.036;2023-02-28T00:38:35;95820.50;;;-1.67;65.37
19208;BME280;9737;59.466;18.036;2023-02-28T00:41:03;95810.38;;;-1.70;65.58
19208;BME280;9737;59.466;18.036;2023-02-28T00:43:34;95797.34;;;-1.70;65.15
19208;BME280;9737;59.466;18.036;2023-02-28T00:46:03;95838.13;;;-1.61;65.56
19208;BME280;9737;59.466;18.036;2023-02-28T00:48:31;95848.25;;;-1.58;65.21
19208;BME280;9737;59.466;18.036;2023-02-28T00:50:59;95859.34;;;-1.56;65.69
19208;BME280;9737;59.466;18.036;2023-02-28T00:53:27;95863.72;;;-1.56;65.49
19208;BME280;9737;59.466;18.036;2023-02-28T00:55:55;95889.03;;;-1.48;65.26
19208;BME280;9737;59.466;18.036;2023-02-28T00:58:24;95880.41;;;-1.49;65.80
19208;BME280;9737;59.466;18.036;2023-02-28T01:00:53;95858.66;;;-1.58;65.40
19208;BME280;9737;59.466;18.036;2023-02-28T01:03:22;95852.63;;;-1.58;65.75
19208;BME280;9737;59.466;18.036;2023-02-28T01:05:50;95790.78;;;-1.74;65.77
19208;BME280;9737;59.466;18.036;2023-02-28T01:08:19;95822.13;;;-1.66;65.62
19208;BME280;9737;59.466;18.036;2023-02-28T01:10:47;95855.09;;;-1.57;65.96
19208;BME280;9737;59.466;18.036;2023-02-28T01:13:16;95874.38;;;-1.49;65.75
19208;BME280;9737;59.466;18.036;2023-02-28T01:15:49;95905.72;;;-1.41;65.87
19208;BME280;9737;59.466;18.036;2023-02-28T01:18:19;95931.19;;;-1.35;65.97
19208;BME280;9737;59.466;18.036;2023-02-28T01:20:48;95904.09;;;-1.42;65.98
19208;BME280;9737;59.466;18.036;2023-02-28T01:23:18;95874.22;;;-1.48;65.92
19208;BME280;9737;59.466;18.036;2023-02-28T01:25:46;95860.16;;;-1.55;65.93
19208;BME280;9737;59.466;18.036;2023-02-28T01:28:14;95855.09;;;-1.57;65.97
19208;BME280;9737;59.466;18.036;2023-02-28T01:30:42;95838.13;;;-1.61;65.68
19208;BME280;9737;59.466;18.036;2023-02-28T01:33:10;95801.91;;;-1.72;65.76
19208;BME280;9737;59.466;18.036;2023-02-28T01:35:39;95829.78;;;-1.64;66.12
19208;BME280;9737;59.466;18.036;2023-02-28T01:38:07;95843.34;;;-1.61;65.89
19208;BME280;9737;59.466;18.036;2023-02-28T01:40:47;95832.41;;;-1.64;65.81
19208;BME280;9737;59.466;18.036;2023-02-28T01:43:21;95844.16;;;-1.60;66.10
19208;BME280;9737;59.466;18.036;2023-02-28T01:45:49;95817.91;;;-1.67;65.82
19208;BME280;9737;59.466;18.036;2023-02-28T01:48:18;95820.94;;;-1.71;65.93
19208;BME280;9737;59.466;18.036;2023-02-28T01:50:48;95832.91;;;-1.61;65.97
19208;BME280;9737;59.466;18.036;2023-02-28T01:53:19;95860.97;;;-1.54;66.27
19208;BME280;9737;59.466;18.036;2023-02-28T01:55:50;95860.00;;;-1.53;65.92
19208;BME280;9737;59.466;18.036;2023-02-28T01:58:20;95863.56;;;-1.54;66.24
19208;BME280;9737;59.466;18.036;2023-02-28T02:00:48;95863.56;;;-1.54;66.05
19208;BME280;9737;59.466;18.036;2023-02-28T02:03:17;95889.03;;;-1.48;66.04
19208;BME280;9737;59.466;18.036;2023-02-28T02:05:48;95899.16;;;-1.45;65.90
19208;BME280;9737;59.466;18.036;2023-02-28T02:08:18;95901.63;;;-1.44;66.33
19208;BME280;9737;59.466;18.036;2023-02-28T02:10:48;95983.75;;;-1.22;66.20
19208;BME280;9737;59.466;18.036;2023-02-28T02:13:30;96013.34;;;-1.13;66.17
19208;BME280;9737;59.466;18.036;2023-02-28T02:16:10;96004.00;;;-1.16;66.62
19208;BME280;9737;59.466;18.036;2023-02-28T02:18:46;95975.41;;;-1.26;66.32
19208;BME280;9737;59.466;18.036;2023-02-28T02:21:34;95966.94;;;-1.28;66.56
19208;BME280;9737;59.466;18.036;2023-02-28T02:24:33;95913.69;;;-1.43;66.61
19208;BME280;9737;59.466;18.036;2023-02-28T02:27:17;95906.84;;;-1.44;66.40
19208;BME280;9737;59.466;18.036;2023-02-28T02:33:04;95823.97;;;-1.76;66.64
19208;BME280;9737;59.466;18.036;2023-02-28T02:35:40;95853.47;;;-1.58;66.62
19208;BME280;9737;59.466;18.036;2023-02-28T02:38:15;95836.50;;;-1.62;66.54
19208;BME280;9737;59.466;18.036;2023-02-28T02:40:54;95784.91;;;-1.76;66.90
19208;BME280;9737;59.466;18.036;2023-02-28T02:43:26;95718.34;;;-1.96;66.59
19208;BME280;9737;59.466;18.036;2023-02-28T02:46:01;95665.84;;;-2.09;66.60
19208;BME280;9737;59.466;18.036;2023-02-28T02:48:33;95599.34;;;-2.30;66.55
19208;BME280;9737;59.466;18.036;2023-02-28T02:51:06;95552.88;;;-2.42;66.41
19208;BME280;9737;59.466;18.036;2023-02-28T02:53:42;95599.03;;;-2.27;66.48
19208;BME280;9737;59.466;18.036;2023-02-28T02:56:12;95619.25;;;-2.21;66.48
19208;BME280;9737;59.466;18.036;2023-02-28T02:58:42;95611.75;;;-2.24;66.77
19208;BME280;9737;59.466;18.036;2023-02-28T03:01:14;95665.53;;;-2.06;66.75
19208;BME280;9737;59.466;18.036;2023-02-28T03:03:44;95672.69;;;-2.08;67.09
19208;BME280;9737;59.466;18.036;2023-02-28T03:06:14;95673.50;;;-2.08;66.87
19208;BME280;9737;59.466;18.036;2023-02-28T03:08:42;95692.63;;;-1.99;66.76
19208;BME280;9737;59.466;18.036;2023-02-28T03:11:12;95713.97;;;-1.96;67.02
19208;BME280;9737;59.466;18.036;2023-02-28T03:13:58;95701.41;;;-2.00;66.70
19208;BME280;9737;59.466;18.036;2023-02-28T03:16:41;95659.97;;;-2.11;66.73
19208;BME280;9737;59.466;18.036;2023-02-28T03:19:42;95632.94;;;-2.19;67.04
19208;BME280;9737;59.466;18.036;2023-02-28T03:22:29;95628.03;;;-2.22;66.98
19208;BME280;9737;59.466;18.036;2023-02-28T03:25:07;95623.78;;;-2.23;66.95
19208;BME280;9737;59.466;18.036;2023-02-28T03:27:40;95655.75;;;-2.12;67.29
19208;BME280;9737;59.466;18.036;2023-02-28T03:30:13;95619.56;;;-2.24;67.19
19208;BME280;9737;59.466;18.036;2023-02-28T03:32:46;95562.84;;;-2.38;67.05
19208;BME280;9737;59.466;18.036;2023-02-28T03:35:21;95572.28;;;-2.37;67.22
19208;BME280;9737;59.466;18.036;2023-02-28T03:37:54;95566.09;;;-2.36;67.09
19208;BME280;9737;59.466;18.036;2023-02-28T03:40:26;95578.00;;;-2.33;67.13
19208;BME280;9737;59.466;18.036;2023-02-28T03:42:59;95604.09;;;-2.25;67.39
19208;BME280;9737;59.466;18.036;2023-02-28T03:45:32;95622.00;;;-2.22;67.05
19208;BME280;9737;59.466;18.036;2023-02-28T03:48:05;95610.13;;;-2.25;67.26
19208;BME280;9737;59.466;18.036;2023-02-28T03:50:38;95581.28;;;-2.31;67.21
19208;BME280;9737;59.466;18.036;2023-02-28T03:53:11;95605.22;;;-2.28;67.26
19208;BME280;9737;59.466;18.036;2023-02-28T03:55:42;95616.94;;;-2.24;67.39
19208;BME280;9737;59.466;18.036;2023-02-28T03:58:15;95638.13;;;-2.19;67.47
19208;BME280;9737;59.466;18.036;2023-02-28T04:00:53;95643.03;;;-2.15;67.44
19208;BME280;9737;59.466;18.036;2023-02-28T04:03:23;95697.16;;;-2.01;67.49
19208;BME280;9737;59.466;18.036;2023-02-28T04:05:52;95731.75;;;-1.91;67.74
19208;BME280;9737;59.466;18.036;2023-02-28T04:08:22;95765.66;;;-1.83;67.48
19208;BME280;9737;59.466;18.036;2023-02-28T04:10:54;95783.56;;;-1.80;67.76
19208;BME280;9737;59.466;18.036;2023-02-28T04:13:23;95776.59;;;-1.79;67.73
19208;BME280;9737;59.466;18.036;2023-02-28T04:15:51;95796.00;;;-1.74;67.62
19208;BME280;9737;59.466;18.036;2023-02-28T04:18:19;95786.69;;;-1.76;67.80
19208;BME280;9737;59.466;18.036;2023-02-28T04:20:47;95780.81;;;-1.78;67.41
19208;BME280;9737;59.466;18.036;2023-02-28T04:23:15;95753.91;;;-1.87;67.47
19208;BME280;9737;59.466;18.036;2023-02-28T04:25:44;95732.03;;;-1.94;67.55
19208;BME280;9737;59.466;18.036;2023-02-28T04:28:12;95688.81;;;-2.05;67.87
19208;BME280;9737;59.466;18.036;2023-02-28T04:30:39;95615.63;;;-2.28;67.76
19208;BME280;9737;59.466;18.036;2023-02-28T04:33:07;95567.88;;;-2.36;67.68
19208;BME280;9737;59.466;18.036;2023-02-28T04:35:35;95523.09;;;-2.48;67.79
19208;BME280;9737;59.466;18.036;2023-02-28T04:38:03;95497.03;;;-2.56;67.95
19208;BME280;9737;59.466;18.036;2023-02-28T04:40:31;95447.88;;;-2.67;67.84
19208;BME280;9737;59.466;18.036;2023-02-28T04:43:00;95434.50;;;-2.72;67.88
19208;BME280;9737;59.466;18.036;2023-02-28T04:45:28;95414.03;;;-2.75;67.82
19208;BME280;9737;59.466;18.036;2023-02-28T04:47:58;95428.66;;;-2.74;67.88
19208;BME280;9737;59.466;18.036;2023-02-28T04:50:26;95432.88;;;-2.73;67.91
19208;BME280;9737;59.466;18.036;2023-02-28T04:52:54;95446.53;;;-2.71;67.98
19208;BME280;9737;59.466;18.036;2023-02-28T04:55:22;95438.38;;;-2.76;67.96
19208;BME280;9737;59.466;18.036;2023-02-28T04:57:49;95458.94;;;-2.65;68.25
19208;BME280;9737;59.466;18.036;2023-02-28T05:00:19;95478.47;;;-2.61;68.08
19208;BME280;9737;59.466;18.036;2023-02-28T05:02:47;95476.56;;;-2.59;68.18
19208;BME280;9737;59.466;18.036;2023-02-28T05:05:15;95489.25;;;-2.56;68.26
19208;BME280;9737;59.466;18.036;2023-02-28T05:07:44;95483.66;;;-2.61;68.12
19208;BME280;9737;59.466;18.036;2023-02-28T05:10:12;95475.84;;;-2.61;68.24
19208;BME280;9737;59.466;18.036;2023-02-28T05:12:40;95453.06;;;-2.67;68.48
19208;BME280;9737;59.466;18.036;2023-02-28T05:15:12;95431.91;;;-2.72;68.20
19208;BME280;9737;59.466;18.036;2023-02-28T05:17:42;95430.28;;;-2.73;68.08
19208;BME280;9737;59.466;18.036;2023-02-28T05:20:10;95410.75;;;-2.77;68.17
19208;BME280;9737;59.466;18.036;2023-02-28T05:22:42;95357.03;;;-2.95;68.33
19208;BME280;9737;59.466;18.036;2023-02-28T05:25:12;95339.00;;;-2.96;68.33
19208;BME280;9737;59.466;18.036;2023-02-28T05:27:41;95339.81;;;-2.96;68.18
19208;BME280;9737;59.466;18.036;2023-02-28T05:30:10;95330.69;;;-3.00;68.23
19208;BME280;9737;59.466;18.036;2023-02-28T05:32:39;95316.53;;;-3.05;68.38
19208;BME280;9737;59.466;18.036;2023-02-28T05:35:11;95339.16;;;-2.98;68.43
19208;BME280;9737;59.466;18.036;2023-02-28T05:37:39;95303.19;;;-3.10;68.50
19208;BME280;9737;59.466;18.036;2023-02-28T05:40:08;95276.03;;;-3.16;68.49
19208;BME280;9737;59.466;18.036;2023-02-28T05:42:37;95285.00;;;-3.10;68.40
19208;BME280;9737;59.466;18.036;2023-02-28T05:45:06;95283.69;;;-3.15;68.58
19208;BME280;9737;59.466;18.036;2023-02-28T05:47:35;95260.72;;;-3.19;68.57
19208;BME280;9737;59.466;18.036;2023-02-28T05:50:03;95254.22;;;-3.23;68.63
19208;BME280;9737;59.466;18.036;2023-02-28T05:52:33;95236.50;;;-3.28;68.65
19208;BME280;9737;59.466;18.036;2023-02-28T05:55:01;95213.59;;;-3.32;68.81
19208;BME280;9737;59.466;18.036;2023-02-28T05:57:29;95222.84;;;-3.30;68.63
19208;BME280;9737;59.466;18.036;2023-02-28T05:59:57;95198.31;;;-3.35;68.72
19208;BME280;9737;59.466;18.036;2023-02-28T06:02:24;95250.66;;;-3.22;68.62
19208;BME280;9737;59.466;18.036;2023-02-28T06:04:52;95267.44;;;-3.17;68.86
19208;BME280;9737;59.466;18.036;2023-02-28T06:07:20;95291.97;;;-3.11;68.86
19208;BME280;9737;59.466;18.036;2023-02-28T06:09:50;95338.47;;;-3.00;68.75
19208;BME280;9737;59.466;18.036;2023-02-28T06:12:18;95367.13;;;-2.92;69.05
19208;BME280;9737;59.466;18.036;2023-02-28T06:14:46;95387.31;;;-2.86;68.90
19208;BME280;9737;59.466;18.036;2023-02-28T06:17:13;95379.84;;;-2.89;68.97
19208;BME280;9737;59.466;18.036;2023-02-28T06:19:41;95348.56;;;-2.97;68.80
19208;BME280;9737;59.466;18.036;2023-02-28T06:22:09;95331.66;;;-3.01;68.95
19208;BME280;9737;59.466;18.036;2023-02-28T06:24:37;95381.31;;;-2.86;69.17
19208;BME280;9737;59.466;18.036;2023-02-28T06:27:06;95406.69;;;-2.80;69.02
19208;BME280;9737;59.466;18.036;2023-02-28T06:29:34;95469.47;;;-2.67;69.03
19208;BME280;9737;59.466;18.036;2023-02-28T06:32:06;95532.53;;;-2.47;69.45
19208;BME280;9737;59.466;18.036;2023-02-28T06:34:34;95628.84;;;-2.21;69.01
19208;BME280;9737;59.466;18.036;2023-02-28T06:37:02;95725.19;;;-1.95;69.39
19208;BME280;9737;59.466;18.036;2023-02-28T06:39:30;95820.13;;;-1.72;69.03
19208;BME280;9737;59.466;18.036;2023-02-28T06:41:58;95869.09;;;-1.58;69.31
19208;BME280;9737;59.466;18.036;2023-02-28T06:44:27;95933.41;;;-1.40;69.72
19208;BME280;9737;59.466;18.036;2023-02-28T06:47:03;95990.75;;;-1.22;69.60
19208;BME280;9737;59.466;18.036;2023-02-28T06:49:33;96041.88;;;-1.12;69.76
19208;BME280;9737;59.466;18.036;2023-02-28T06:52:01;96098.59;;;-0.96;69.50
19208;BME280;9737;59.466;18.036;2023-02-28T06:54:29;96154.50;;;-0.81;69.97
19208;BME280;9737;59.466;18.036;2023-02-28T06:56:57;96250.50;;;-0.57;69.65
19208;BME280;9737;59.466;18.036;2023-02-28T06:59:28;96301.53;;;-0.45;69.85
19208;BME280;9737;59.466;18.036;2023-02-28T07:01:56;96372.63;;;-0.23;69.77
19208;BME280;9737;59.466;18.036;2023-02-28T07:04:24;96450.72;;;-0.03;69.84
19208;BME280;9737;59.466;18.036;2023-02-28T07:06:52;96521.22;;;0.07;70.06
19208;BME280;9737;59.466;18.036;2023-02-28T07:09:22;96649.00;;;0.47;70.38
19208;BME280;9737;59.466;18.036;2023-02-28T07:11:50;96748.44;;;0.75;70.24
19208;BME280;9737;59.466;18.036;2023-02-28T07:14:18;96851.53;;;1.01;70.35
19208;BME280;9737;59.466;18.036;2023-02-28T07:16:47;96973.25;;;1.34;70.29
19208;BME280;9737;59.466;18.036;2023-02-28T07:19:16;97055.13;;;1.55;70.37
19208;BME280;9737;59.466;18.036;2023-02-28T07:21:44;97126.81;;;1.74;70.56
19208;BME280;9737;59.466;18.036;2023-02-28T07:24:12;97203.47;;;1.95;70.80
19208;BME280;9737;59.466;18.036;2023-02-28T07:26:42;97256.31;;;2.00;70.91
19208;BME280;9737;59.466;18.036;2023-02-28T07:29:10;97318.03;;;2.24;70.86
19208;BME280;9737;59.466;18.036;2023-02-28T07:31:38;97369.25;;;2.37;71.08
19208;BME280;9737;59.466;18.036;2023-02-28T07:34:07;97395.06;;;2.42;71.08
19208;BME280;9737;59.466;18.036;2023-02-28T07:36:35;97460.81;;;2.60;71.40
19208;BME280;9737;59.466;18.036;2023-02-28T07:39:03;97563.22;;;2.79;71.08
19208;BME280;9737;59.466;18.036;2023-02-28T07:41:31;97756.91;;;3.36;71.23
19208;BME280;9737;59.466;18.036;2023-02-28T07:44:00;97979.88;;;3.92;71.62
19208;BME280;9737;59.466;18.036;2023-02-28T07:46:29;98088.00;;;4.20;71.61
19208;BME280;9737;59.466;18.036;2023-02-28T07:49:02;98226.31;;;4.54;71.78
19208;BME280;9737;59.466;18.036;2023-02-28T07:51:32;98439.38;;;5.10;71.66
19208;BME280;9737;59.466;18.036;2023-02-28T07:54:00;98659.66;;;5.67;71.41
19208;BME280;9737;59.466;18.036;2023-02-28T07:56:29;98920.31;;;6.29;71.57
19208;BME280;9737;59.466;18.036;2023-02-28T07:58:58;99102.28;;;6.77;72.17
19208;BME280;9737;59.466;18.036;2023-02-28T08:01:26;99237.56;;;7.04;72.40
19208;BME280;9737;59.466;18.036;2023-02-28T08:03:54;99350.34;;;7.39;72.32
19208;BME280;9737;59.466;18.036;2023-02-28T08:06:24;99371.13;;;7.43;72.26
19208;BME280;9737;59.466;18.036;2023-02-28T08:08:54;99430.94;;;7.57;72.42
19208;BME280;9737;59.466;18.036;2023-02-28T08:11:22;99395.53;;;7.47;72.46
19208;BME280;9737;59.466;18.036;2023-02-28T08:13:50;99367.88;;;7.40;72.42
19208;BME280;9737;59.466;18.036;2023-02-28T08:16:18;99347.22;;;7.34;72.75
19208;BME280;9737;59.466;18.036;2023-02-28T08:18:49;99307.28;;;7.26;72.18
19208;BME280;9737;59.466;18.036;2023-02-28T08:21:17;99318.59;;;7.28;72.55
19208;BME280;9737;59.466;18.036;2023-02-28T08:23:46;99366.69;;;7.33;72.38
19208;BME280;9737;59.466;18.036;2023-02-28T08:26:16;99430.22;;;7.55;72.55
19208;BME280;9737;59.466;18.036;2023-02-28T08:28:45;99406.84;;;7.49;72.60
19208;BME280;9737;59.466;18.036;2023-02-28T08:31:14;99481.22;;;7.68;72.66
19208;BME280;9737;59.466;18.036;2023-02-28T08:33:43;99511.56;;;7.75;72.62
19208;BME280;9737;59.466;18.036;2023-02-28T08:36:11;99477.97;;;7.65;72.83
19208;BME280;9737;59.466;18.036;2023-02-28T08:38:40;99500.38;;;7.72;72.70
19208;BME280;9737;59.466;18.036;2023-02-28T08:41:10;99498.78;;;7.69;72.88
19208;BME280;9737;59.466;18.036;2023-02-28T08:43:40;99393.25;;;7.42;72.77
19208;BME280;9737;59.466;18.036;2023-02-28T08:46:11;99295.25;;;7.22;72.70
19208;BME280;9737;59.466;18.036;2023-02-28T08:48:40;99214.25;;;6.98;72.74
19208;BME280;9737;59.466;18.036;2023-02-28T08:51:10;99218.69;;;6.98;72.62
19208;BME280;9737;59.466;18.036;2023-02-28T08:53:39;99242.00;;;7.04;72.67
19208;BME280;9737;59.466;18.036;2023-02-28T08:56:09;99441.53;;;7.57;72.82
19208;BME280;9737;59.466;18.036;2023-02-28T08:58:37;99834.97;;;8.54;72.82
19208;BME280;9737;59.466;18.036;2023-02-28T09:01:11;100359.75;;;9.82;72.62
19208;BME280;9737;59.466;18.036;2023-02-28T09:03:40;100864.50;;;11.03;72.89
19208;BME280;9737;59.466;18.036;2023-02-28T09:06:09;101183.84;;;11.85;73.21
19208;BME280;9737;59.466;18.036;2023-02-28T09:08:38;101370.34;;;12.28;72.93
19208;BME280;9737;59.466;18.036;2023-02-28T09:11:07;101599.75;;;12.83;73.08
19208;BME280;9737;59.466;18.036;2023-02-28T09:13:35;101671.72;;;12.99;72.99
19208;BME280;9737;59.466;18.036;2023-02-28T09:16:05;102029.81;;;13.84;72.96
19208;BME280;9737;59.466;18.036;2023-02-28T09:18:35;102072.81;;;13.95;73.13
19208;BME280;9737;59.466;18.036;2023-02-28T09:21:04;102107.31;;;14.00;73.04
19208;BME280;9737;59.466;18.036;2023-02-28T09:23:33;102191.53;;;14.23;73.42
19208;BME280;9737;59.466;18.036;2023-02-28T09:26:03;102277.75;;;14.42;73.22
19208;BME280;9737;59.466;18.036;2023-02-28T09:28:31;102236.53;;;14.31;73.48
19208;BME280;9737;59.466;18.036;2023-02-28T09:30:59;102265.59;;;14.37;73.14
19208;BME280;9737;59.466;18.036;2023-02-28T09:33:27;102235.78;;;14.29;73.30
19208;BME280;9737;59.466;18.036;2023-02-28T09:36:00;102298.16;;;14.45;73.39
19208;BME280;9737;59.466;18.036;2023-02-28T09:38:28;102234.91;;;14.28;73.44
19208;BME280;9737;59.466;18.036;2023-02-28T09:40:58;102468.06;;;14.85;72.93
19208;BME280;9737;59.466;18.036;2023-02-28T09:43:31;102467.28;;;14.83;73.23
19208;BME280;9737;59.466;18.036;2023-02-28T09:46:05;102282.44;;;14.39;72.97
19208;BME280;9737;59.466;18.036;2023-02-28T09:48:39;102356.25;;;14.59;73.27
19208;BME280;9737;59.466;18.036;2023-02-28T09:51:40;102407.53;;;14.67;72.92
19208;BME280;9737;59.466;18.036;2023-02-28T09:54:15;102175.91;;;14.15;72.89
19208;BME280;9737;59.466;18.036;2023-02-28T09:56:47;101872.94;;;13.42;73.16
19208;BME280;9737;59.466;18.036;2023-02-28T09:59:29;101880.97;;;13.42;73.06
19208;BME280;9737;59.466;18.036;2023-02-28T10:02:07;102087.16;;;13.94;72.74
19208;BME280;9737;59.466;18.036;2023-02-28T10:04:44;102027.50;;;13.78;72.93
19208;BME280;9737;59.466;18.036;2023-02-28T10:07:32;101982.75;;;13.68;72.59
19208;BME280;9737;59.466;18.036;2023-02-28T10:12:44;102087.34;;;13.91;72.67
19208;BME280;9737;59.466;18.036;2023-02-28T10:15:14;102250.59;;;14.34;72.70
19208;BME280;9737;59.466;18.036;2023-02-28T10:17:47;102332.53;;;14.52;72.60
19208;BME280;9737;59.466;18.036;2023-02-28T10:20:36;102524.44;;;14.98;72.63
19208;BME280;9737;59.466;18.036;2023-02-28T10:23:11;102662.88;;;15.29;72.46
19208;BME280;9737;59.466;18.036;2023-02-28T10:25:45;102843.69;;;15.72;72.38
19208;BME280;9737;59.466;18.036;2023-02-28T10:28:16;102729.81;;;15.46;72.22
19208;BME280;9737;59.466;18.036;2023-02-28T10:30:47;102528.94;;;14.97;72.41
19208;BME280;9737;59.466;18.036;2023-02-28T10:33:19;102265.69;;;14.35;72.16
19208;BME280;9737;59.466;18.036;2023-02-28T10:35:49;102215.41;;;14.26;72.26
19208;BME280;9737;59.466;18.036;2023-02-28T10:38:21;102321.91;;;14.51;71.97
19208;BME280;9737;59.466;18.036;2023-02-28T10:40:49;102319.50;;;14.46;72.10
19208;BME280;9737;59.466;18.036;2023-02-28T10:43:22;102554.34;;;15.06;72.04
19208;BME280;9737;59.466;18.036;2023-02-28T10:45:59;102976.03;;;16.04;71.92
19208;BME280;9737;59.466;18.036;2023-02-28T10:48:33;103019.25;;;16.15;71.87
19208;BME280;9737;59.466;18.036;2023-02-28T10:51:02;103307.59;;;16.80;71.72
19208;BME280;9737;59.466;18.036;2023-02-28T10:53:36;103440.69;;;17.04;71.79
19208;BME280;9737;59.466;18.036;2023-02-28T10:56:25;103602.41;;;17.49;71.64
19208;BME280;9737;59.466;18.036;2023-02-28T10:58:56;104090.56;;;18.59;71.71
19208;BME280;9737;59.466;18.036;2023-02-28T11:01:34;103784.28;;;17.89;71.71
19208;BME280;9737;59.466;18.036;2023-02-28T11:04:03;103734.56;;;17.79;71.47
19208;BME280;9737;59.466;18.036;2023-02-28T11:06:32;104005.31;;;18.39;71.42
19208;BME280;9737;59.466;18.036;2023-02-28T11:09:04;104052.34;;;18.51;71.37
19208;BME280;9737;59.466;18.036;2023-02-28T11:11:42;104128.03;;;18.65;71.35
19208;BME280;9737;59.466;18.036;2023-02-28T11:14:18;104274.56;;;19.02;71.23
19208;BME280;9737;59.466;18.036;2023-02-28T11:16:48;104513.13;;;19.56;71.01
19208;BME280;9737;59.466;18.036;2023-02-28T11:19:20;104535.38;;;19.61;71.13
19208;BME280;9737;59.466;18.036;2023-02-28T11:21:53;104776.91;;;20.15;70.91
19208;BME280;9737;59.466;18.036;2023-02-28T11:24:26;104766.19;;;20.13;70.83
19208;BME280;9737;59.466;18.036;2023-02-28T11:26:55;104665.50;;;19.89;70.81
19208;BME280;9737;59.466;18.036;2023-02-28T11:29:25;104570.06;;;19.70;70.75
19208;BME280;9737;59.466;18.036;2023-02-28T11:32:13;104598.53;;;19.77;70.56
19208;BME280;9737;59.466;18.036;2023-02-28T11:34:44;104398.09;;;19.33;70.66
19208;BME280;9737;59.466;18.036;2023-02-28T11:37:14;104310.00;;;19.13;70.50
19208;BME280;9737;59.466;18.036;2023-02-28T11:39:45;104489.69;;;19.56;70.37
19208;BME280;9737;59.466;18.036;2023-02-28T11:42:32;104101.00;;;18.67;70.23
19208;BME280;9737;59.466;18.036;2023-02-28T11:45:12;103863.81;;;18.13;70.14
19208;BME280;9737;59.466;18.036;2023-02-28T11:47:47;103468.50;;;17.21;70.03
19208;BME280;9737;59.466;18.036;2023-02-28T11:50:44;103175.34;;;16.58;69.75
19208;BME280;9737;59.466;18.036;2023-02-28T11:53:22;102888.28;;;15.90;69.87
19208;BME280;9737;59.466;18.036;2023-02-28T11:56:03;102486.91;;;14.98;69.28
19208;BME280;9737;59.466;18.036;2023-02-28T11:58:40;102404.31;;;14.76;69.45
19208;BME280;9737;59.466;18.036;2023-02-28T12:01:30;102746.78;;;15.62;69.21
19208;BME280;9737;59.466;18.036;2023-02-28T12:04:14;102939.25;;;16.06;69.15
19208;BME280;9737;59.466;18.036;2023-02-28T12:06:50;103111.38;;;16.49;69.02
19208;BME280;9737;59.466;18.036;2023-02-28T12:09:34;103304.16;;;16.94;69.01
19208;BME280;9737;59.466;18.036;2023-02-28T12:12:19;103480.31;;;17.34;68.95
19208;BME280;9737;59.466;18.036;2023-02-28T12:15:25;103801.22;;;18.08;68.83
19208;BME280;9737;59.466;18.036;2023-02-28T12:18:07;103920.16;;;18.35;68.74
19208;BME280;9737;59.466;18.036;2023-02-28T12:20:46;104016.03;;;18.58;68.49
19208;BME280;9737;59.466;18.036;2023-02-28T12:23:27;103673.59;;;17.78;68.61
19208;BME280;9737;59.466;18.036;2023-02-28T12:26:13;103302.31;;;16.94;68.43
19208;BME280;9737;59.466;18.036;2023-02-28T12:28:49;103204.22;;;16.70;68.10
19208;BME280;9737;59.466;18.036;2023-02-28T12:31:19;103264.25;;;16.86;68.10
19208;BME280;9737;59.466;18.036;2023-02-28T12:33:51;103129.84;;;16.55;68.10
19208;BME280;9737;59.466;18.036;2023-02-28T12:36:20;102907.97;;;16.05;67.98
19208;BME280;9737;59.466;18.036;2023-02-28T12:38:55;102967.13;;;16.19;67.51
19208;BME280;9737;59.466;18.036;2023-02-28T12:41:29;102977.69;;;16.22;67.81
19208;BME280;9737;59.466;18.036;2023-02-28T12:44:05;102861.16;;;15.95;67.47
19208;BME280;9737;59.466;18.036;2023-02-28T12:46:35;102766.75;;;15.72;67.75
19208;BME280;9737;59.466;18.036;2023-02-28T12:49:09;102575.34;;;15.28;67.34
19208;BME280;9737;59.466;18.036;2023-02-28T12:51:40;102509.19;;;15.14;67.13
19208;BME280;9737;59.466;18.036;2023-02-28T12:54:14;102283.00;;;14.60;67.19
19208;BME280;9737;59.466;18.036;2023-02-28T12:56:49;102293.31;;;14.66;66.93
19208;BME280;9737;59.466;18.036;2023-02-28T12:59:25;102390.16;;;14.88;66.88
19208;BME280;9737;59.466;18.036;2023-02-28T13:02:01;102259.94;;;14.57;66.67
19208;BME280;9737;59.466;18.036;2023-02-28T13:04:52;102480.84;;;15.10;66.60
19208;BME280;9737;59.466;18.036;2023-02-28T13:07:44;102887.28;;;16.07;66.64
19208;BME280;9737;59.466;18.036;2023-02-28T13:10:17;103124.09;;;16.61;66.60
19208;BME280;9737;59.466;18.036;2023-02-28T13:12:49;103304.66;;;17.00;66.70
19208;BME280;9737;59.466;18.036;2023-02-28T13:15:22;103481.41;;;17.47;66.53
19208;BME280;9737;59.466;18.036;2023-02-28T13:17:53;103219.50;;;16.85;66.43
19208;BME280;9737;59.466;18.036;2023-02-28T13:20:24;103316.75;;;17.09;66.25
19208;BME280;9737;59.466;18.036;2023-02-28T13:22:54;103290.09;;;17.04;66.32
19208;BME280;9737;59.466;18.036;2023-02-28T13:25:50;102903.03;;;16.13;66.12
19208;BME280;9737;59.466;18.036;2023-02-28T13:28:57;102727.38;;;15.73;66.05